Weather reports worldwide

Advertisment
Manchester/Intl, United Kingdom (3334): temperature & dewpoint: 15.10.2017 06:00:00 - 21.10.2017 06:00:00 (BST)Manchester/Intl, United Kingdom (3334): wind speed: 15.10.2017 06:00:00 - 21.10.2017 06:00:00 (BST)Manchester/Intl, United Kingdom (3334): wind direction: 15.10.2017 06:00:00 - 21.10.2017 06:00:00 (BST)Manchester/Intl, United Kingdom (3334): visibility: 15.10.2017 06:00:00 - 21.10.2017 06:00:00 (BST)
Date & Time tt [°C] td [°C] ff [km/h] ff [kn] dd vv [km]
21.10.2017 06:00:00 - - - - - -
21.10.2017 05:00:00 13,0 11,0 13 7 S 10
21.10.2017 04:00:00 13,0 11,0 11 6 SSE 10
21.10.2017 03:00:00 13,0 11,0 11 6 S 10
21.10.2017 02:00:00 13,0 11,0 11 6 - 10
21.10.2017 01:00:00 12,0 11,0 15 8 SSE 10
21.10.2017 00:00:00 12,0 10,0 13 7 SSE 10
20.10.2017 23:00:00 11,0 9,0 15 8 SSE 10
20.10.2017 22:00:00 11,0 8,0 9 5 SSE 10
20.10.2017 21:00:00 11,0 7,0 11 6 SSE 10
20.10.2017 20:00:00 11,0 6,0 9 5 SE 10
20.10.2017 19:00:00 10,0 7,0 5 3 - 10
20.10.2017 18:00:00 11,0 8,0 8 4 S 10
20.10.2017 17:00:00 12,0 9,0 13 7 SSW 10
20.10.2017 16:00:00 12,0 10,0 5 3 - 10
20.10.2017 15:00:00 12,0 10,0 13 7 WSW 10
20.10.2017 14:00:00 12,0 11,0 18 10 WSW 10
20.10.2017 13:00:00 13,0 12,0 16 9 W 10
20.10.2017 12:00:00 13,0 12,0 24 13 W 3,0
20.10.2017 11:00:00 13,0 12,0 22 12 W 3,1
20.10.2017 10:00:00 13,0 12,0 15 8 W 10
20.10.2017 09:00:00 12,0 11,0 8 4 W 4,2
20.10.2017 08:00:00 11,0 10,0 5 3 SSW 3,3
20.10.2017 07:00:00 10,0 10,0 5 3 - 6
20.10.2017 06:00:00 9,0 8,0 4 2 SSE 9
20.10.2017 05:00:00 10,0 9,0 2 1 - 10
20.10.2017 04:00:00 11,0 9,0 4 2 E 10
20.10.2017 03:00:00 12,0 10,0 4 2 - 10
20.10.2017 02:00:00 13,0 11,0 5 3 - 10
20.10.2017 01:00:00 14,0 12,0 5 3 - 10
20.10.2017 00:00:00 14,0 12,0 13 7 SSE 10
19.10.2017 23:00:00 14,0 12,0 11 6 SSE 10
19.10.2017 22:00:00 14,0 11,0 13 7 SE 10
19.10.2017 21:00:00 14,0 11,0 13 7 SE 10
19.10.2017 20:00:00 13,0 12,0 9 5 SSE 10
19.10.2017 19:00:00 14,0 12,0 8 4 SSE 10
19.10.2017 18:00:00 14,0 13,0 5 3 SSE 6
19.10.2017 17:00:00 14,0 13,0 11 6 - 5
19.10.2017 16:00:00 14,0 13,0 13 7 E 4,5
19.10.2017 15:00:00 13,0 12,0 11 6 E 3,3
19.10.2017 14:00:00 13,0 12,0 8 4 E 10
19.10.2017 13:00:00 13,0 11,0 9 5 ESE 2,9
19.10.2017 12:00:00 13,0 11,0 4 2 - 10
19.10.2017 11:00:00 12,0 10,0 5 3 W 10
19.10.2017 10:00:00 11,0 10,0 5 3 - 10
19.10.2017 09:00:00 11,0 10,0 2 1 - 10
19.10.2017 08:00:00 10,0 9,0 4 2 - 10
19.10.2017 07:00:00 11,0 10,0 4 2 - 8
19.10.2017 06:00:00 11,0 10,0 5 3 - 8
19.10.2017 05:00:00 11,0 10,0 5 3 - 9
19.10.2017 04:00:00 11,0 11,0 9 5 SSW 3,0
19.10.2017 03:00:00 12,0 11,0 5 3 - 7
19.10.2017 02:00:00 12,0 11,0 8 4 S 10
19.10.2017 01:00:00 12,0 10,0 4 2 - 10
19.10.2017 00:00:00 12,0 11,0 4 2 - 10
18.10.2017 23:00:00 11,0 10,0 4 2 - 10
18.10.2017 22:00:00 11,0 10,0 2 1 - 10
18.10.2017 21:00:00 12,0 10,0 4 2 - 10
18.10.2017 20:00:00 12,0 9,0 4 2 - 10
18.10.2017 19:00:00 12,0 9,0 4 2 - 10
18.10.2017 18:00:00 12,0 9,0 5 3 ENE 10
18.10.2017 17:00:00 12,0 9,0 8 4 E 10
18.10.2017 16:00:00 12,0 8,0 5 3 - 10
18.10.2017 15:00:00 12,0 7,0 5 3 - 10
18.10.2017 14:00:00 12,0 6,0 5 3 - 10
18.10.2017 13:00:00 12,0 6,0 5 3 - 10
18.10.2017 12:00:00 12,0 7,0 9 5 - 10
18.10.2017 11:00:00 12,0 7,0 9 5 E 10
18.10.2017 10:00:00 10,0 7,0 2 1 - 10
18.10.2017 09:00:00 6,0 5,0 5 3 E 10
18.10.2017 08:00:00 5,0 4,0 2 1 - 10
18.10.2017 07:00:00 6,0 5,0 2 1 - 10
18.10.2017 06:00:00 6,0 5,0 5 3 NE 10
18.10.2017 05:00:00 7,0 5,0 5 3 ENE 10
18.10.2017 04:00:00 7,0 6,0 4 2 ESE 10
18.10.2017 03:00:00 9,0 6,0 4 2 ESE 10
18.10.2017 02:00:00 9,0 6,0 2 1 - 10
18.10.2017 01:00:00 9,0 6,0 5 3 SSE 10
18.10.2017 00:00:00 9,0 6,0 8 4 S 10
17.10.2017 23:00:00 9,0 6,0 8 4 S 10
17.10.2017 22:00:00 9,0 6,0 5 3 SSE 10
17.10.2017 21:00:00 9,0 6,0 5 3 - 10
17.10.2017 20:00:00 10,0 6,0 4 2 - 10
17.10.2017 19:00:00 10,0 6,0 4 2 - 10
17.10.2017 18:00:00 12,0 6,0 8 4 WSW 10
17.10.2017 17:00:00 13,0 6,0 18 10 WSW 10
17.10.2017 16:00:00 14,0 6,0 22 12 WSW 10
17.10.2017 15:00:00 15,0 6,0 31 17 WSW 10
17.10.2017 14:00:00 15,0 6,0 34 18 WSW 10
17.10.2017 13:00:00 14,0 6,0 34 18 WSW 10
17.10.2017 12:00:00 14,0 7,0 34 18 WSW 10
17.10.2017 11:00:00 13,0 7,0 26 14 WSW 10
17.10.2017 10:00:00 13,0 7,0 29 16 SW 10
17.10.2017 09:00:00 11,0 7,0 22 12 SW 10
17.10.2017 08:00:00 11,0 7,0 21 11 SW 10
17.10.2017 07:00:00 12,0 7,0 26 14 WSW 10
17.10.2017 06:00:00 13,0 7,0 24 13 SW 10
17.10.2017 05:00:00 13,0 7,0 21 11 SW 10
17.10.2017 04:00:00 13,0 7,0 24 13 SSW 10
17.10.2017 03:00:00 13,0 7,0 26 14 SSW 10
17.10.2017 02:00:00 13,0 7,0 29 16 SSW 10
17.10.2017 01:00:00 13,0 7,0 28 15 SSW 10
17.10.2017 00:00:00 14,0 7,0 31 17 SW 10
16.10.2017 23:00:00 14,0 6,0 34 18 SW 10
16.10.2017 22:00:00 14,0 7,0 34 18 SSW 10
16.10.2017 21:00:00 14,0 7,0 31 17 SSW 10
16.10.2017 20:00:00 15,0 8,0 28 15 SSW 10
16.10.2017 19:00:00 15,0 7,0 29 16 SSW 10
16.10.2017 18:00:00 16,0 6,0 31 17 SSW 10
16.10.2017 17:00:00 17,0 7,0 29 16 SSW 10
16.10.2017 16:00:00 19,0 8,0 24 13 SSW 10
16.10.2017 15:00:00 20,0 13,0 21 11 S 10
16.10.2017 14:00:00 19,0 14,0 18 10 S 10
16.10.2017 13:00:00 19,0 15,0 16 9 - 10
16.10.2017 12:00:00 19,0 15,0 13 7 SSE 10
16.10.2017 11:00:00 19,0 14,0 16 9 SSE 10
16.10.2017 10:00:00 19,0 14,0 15 8 SE 10
16.10.2017 09:00:00 20,0 13,0 9 5 SE 10
16.10.2017 08:00:00 16,0 14,0 8 4 ESE 10
16.10.2017 07:00:00 15,0 13,0 9 5 ESE 7
16.10.2017 06:00:00 14,0 13,0 9 5 - 4,9
16.10.2017 05:00:00 14,0 12,0 8 4 SSE 5
16.10.2017 04:00:00 14,0 12,0 4 2 - 6
16.10.2017 03:00:00 15,0 12,0 4 2 - 9
16.10.2017 02:00:00 15,0 12,0 4 2 - 10
16.10.2017 01:00:00 15,0 12,0 5 3 - 10
16.10.2017 00:00:00 15,0 12,0 4 2 - 10
15.10.2017 23:00:00 15,0 12,0 8 4 S 10
15.10.2017 22:00:00 15,0 12,0 4 2 - 10
15.10.2017 21:00:00 15,0 11,0 4 2 - 10
15.10.2017 20:00:00 15,0 12,0 8 4 SSW 10
15.10.2017 19:00:00 15,0 12,0 5 3 SSW 10
15.10.2017 18:00:00 15,0 12,0 13 7 SW 10
15.10.2017 17:00:00 16,0 12,0 13 7 SW 10
15.10.2017 16:00:00 17,0 11,0 21 11 SW 10
15.10.2017 15:00:00 17,0 12,0 21 11 SW 10
15.10.2017 14:00:00 18,0 12,0 22 12 SW 10
15.10.2017 13:00:00 18,0 14,0 16 9 SSW 10
15.10.2017 12:00:00 16,0 13,0 15 8 SSW 10
15.10.2017 11:00:00 17,0 13,0 18 10 S 10
15.10.2017 10:00:00 16,0 13,0 18 10 S 10
15.10.2017 09:00:00 14,0 13,0 18 10 S 10
15.10.2017 08:00:00 14,0 12,0 9 5 S 10
15.10.2017 07:00:00 14,0 12,0 9 5 SSE 10
15.10.2017 06:00:00 14,0 12,0 9 5 S 10

tt = temperature
td = dewpoint
ff = wind speed
dd = wind direction
vv = visibility

Next stations